Al Muharraq, Bahrain
Current Conditions -  °F | °C
As of 9:00 PM on Monday 20 Oct 2014 (Local Time) from OBBI Reporting Station
Clear Clear  
Wind Chill: 88°   Ceiling: Unl
Heat Index: 98°   Visibility: 6mi
Dew Point: 75°   Wind: 14mph
Humidity: 66%   Direction: 120°ESE
Pressure: 29.85"   Gusts: NA
Location:  26.26°N, 50.62°E
Report Text: OBBI 201800Z 12012KT CAVOK 31/24 Q1011 NOSIG
Loading
Personal Weather Stations






























Interactive Weather Map
Tropical Storm Tracking
New forecast layout! Learn more

10-Day Weather Forecast

Advertisements
Track Severe Weather on mobile